sensor_id;sensor_type;location;lat;lon;timestamp;P1;durP1;ratioP1;P2;durP2;ratioP2
23561;SDS011;11959;49.418;8.728;2022-09-09T00:00:23;3.40;;;1.48;;
23561;SDS011;11959;49.418;8.728;2022-09-09T00:03:08;3.15;;;1.08;;
23561;SDS011;11959;49.418;8.728;2022-09-09T00:05:51;2.97;;;1.25;;
23561;SDS011;11959;49.418;8.728;2022-09-09T00:08:22;4.53;;;1.52;;
23561;SDS011;11959;49.418;8.728;2022-09-09T00:10:59;3.22;;;1.30;;
23561;SDS011;11959;49.418;8.728;2022-09-09T00:19:13;3.47;;;1.25;;
23561;SDS011;11959;49.418;8.728;2022-09-09T00:21:47;3.90;;;1.20;;
23561;SDS011;11959;49.418;8.728;2022-09-09T00:26:53;2.45;;;1.40;;
23561;SDS011;11959;49.418;8.728;2022-09-09T00:29:28;3.10;;;1.33;;
23561;SDS011;11959;49.418;8.728;2022-09-09T00:32:12;5.03;;;1.30;;
23561;SDS011;11959;49.418;8.728;2022-09-09T00:35:02;2.33;;;1.80;;
23561;SDS011;11959;49.418;8.728;2022-09-09T00:37:28;3.15;;;1.60;;
23561;SDS011;11959;49.418;8.728;2022-09-09T00:39:57;3.65;;;1.20;;
23561;SDS011;11959;49.418;8.728;2022-09-09T00:42:42;3.75;;;1.50;;
23561;SDS011;11959;49.418;8.728;2022-09-09T00:47:52;3.45;;;1.65;;
23561;SDS011;11959;49.418;8.728;2022-09-09T00:56:11;3.85;;;1.60;;
23561;SDS011;11959;49.418;8.728;2022-09-09T00:59:23;4.85;;;1.60;;
23561;SDS011;11959;49.418;8.728;2022-09-09T01:02:01;3.55;;;1.70;;
23561;SDS011;11959;49.418;8.728;2022-09-09T01:04:38;4.22;;;1.50;;
23561;SDS011;11959;49.418;8.728;2022-09-09T01:07:07;2.42;;;1.20;;
23561;SDS011;11959;49.418;8.728;2022-09-09T01:18:02;3.15;;;1.48;;
23561;SDS011;11959;49.418;8.728;2022-09-09T01:26:24;2.90;;;1.50;;
23561;SDS011;11959;49.418;8.728;2022-09-09T01:29:10;2.38;;;1.30;;
23561;SDS011;11959;49.418;8.728;2022-09-09T01:31:51;5.05;;;1.60;;
23561;SDS011;11959;49.418;8.728;2022-09-09T01:34:25;4.18;;;1.40;;
23561;SDS011;11959;49.418;8.728;2022-09-09T01:37:06;2.10;;;1.30;;
23561;SDS011;11959;49.418;8.728;2022-09-09T01:39:35;4.22;;;1.75;;
23561;SDS011;11959;49.418;8.728;2022-09-09T01:42:02;2.30;;;1.40;;
23561;SDS011;11959;49.418;8.728;2022-09-09T01:44:31;2.92;;;1.20;;
23561;SDS011;11959;49.418;8.728;2022-09-09T01:46:57;2.63;;;1.38;;
23561;SDS011;11959;49.418;8.728;2022-09-09T01:49:23;2.45;;;1.58;;
23561;SDS011;11959;49.418;8.728;2022-09-09T01:51:49;4.05;;;1.42;;
23561;SDS011;11959;49.418;8.728;2022-09-09T01:54:20;2.72;;;1.50;;
23561;SDS011;11959;49.418;8.728;2022-09-09T02:02:17;3.20;;;1.40;;
23561;SDS011;11959;49.418;8.728;2022-09-09T02:05:00;3.90;;;1.88;;
23561;SDS011;11959;49.418;8.728;2022-09-09T02:07:48;3.67;;;1.80;;
23561;SDS011;11959;49.418;8.728;2022-09-09T02:10:18;2.97;;;1.60;;
23561;SDS011;11959;49.418;8.728;2022-09-09T02:12:47;4.38;;;2.08;;
23561;SDS011;11959;49.418;8.728;2022-09-09T02:15:26;2.65;;;1.50;;
23561;SDS011;11959;49.418;8.728;2022-09-09T02:18:04;4.07;;;1.58;;
23561;SDS011;11959;49.418;8.728;2022-09-09T02:20:33;4.38;;;1.73;;
23561;SDS011;11959;49.418;8.728;2022-09-09T02:23:02;4.18;;;1.60;;
23561;SDS011;11959;49.418;8.728;2022-09-09T02:25:29;2.08;;;1.33;;
23561;SDS011;11959;49.418;8.728;2022-09-09T02:27:55;3.40;;;1.50;;
23561;SDS011;11959;49.418;8.728;2022-09-09T02:30:23;2.60;;;1.20;;
23561;SDS011;11959;49.418;8.728;2022-09-09T02:32:50;5.00;;;1.70;;
23561;SDS011;11959;49.418;8.728;2022-09-09T02:35:22;2.70;;;1.23;;
23561;SDS011;11959;49.418;8.728;2022-09-09T02:37:49;3.75;;;1.80;;
23561;SDS011;11959;49.418;8.728;2022-09-09T02:40:18;4.20;;;2.03;;
23561;SDS011;11959;49.418;8.728;2022-09-09T02:42:45;3.53;;;1.60;;
23561;SDS011;11959;49.418;8.728;2022-09-09T02:45:14;3.30;;;1.60;;
23561;SDS011;11959;49.418;8.728;2022-09-09T02:47:46;3.88;;;1.60;;
23561;SDS011;11959;49.418;8.728;2022-09-09T02:50:44;3.63;;;1.73;;
23561;SDS011;11959;49.418;8.728;2022-09-09T02:53:22;4.68;;;1.60;;
23561;SDS011;11959;49.418;8.728;2022-09-09T02:55:58;2.60;;;1.38;;
23561;SDS011;11959;49.418;8.728;2022-09-09T02:58:46;3.63;;;1.85;;
23561;SDS011;11959;49.418;8.728;2022-09-09T03:01:14;4.50;;;1.55;;
23561;SDS011;11959;49.418;8.728;2022-09-09T03:03:39;4.90;;;1.58;;
23561;SDS011;11959;49.418;8.728;2022-09-09T03:06:07;6.57;;;2.08;;
23561;SDS011;11959;49.418;8.728;2022-09-09T03:08:33;3.55;;;1.80;;
23561;SDS011;11959;49.418;8.728;2022-09-09T03:10:58;4.80;;;1.73;;
23561;SDS011;11959;49.418;8.728;2022-09-09T03:13:26;4.75;;;1.88;;
23561;SDS011;11959;49.418;8.728;2022-09-09T03:15:52;5.15;;;1.80;;
23561;SDS011;11959;49.418;8.728;2022-09-09T03:18:17;6.22;;;2.00;;
23561;SDS011;11959;49.418;8.728;2022-09-09T03:20:43;4.82;;;2.00;;
23561;SDS011;11959;49.418;8.728;2022-09-09T03:23:11;2.67;;;1.80;;
23561;SDS011;11959;49.418;8.728;2022-09-09T03:25:38;4.30;;;1.75;;
23561;SDS011;11959;49.418;8.728;2022-09-09T03:28:04;3.75;;;1.70;;
23561;SDS011;11959;49.418;8.728;2022-09-09T03:30:30;5.50;;;1.90;;
23561;SDS011;11959;49.418;8.728;2022-09-09T03:32:55;2.53;;;1.33;;
23561;SDS011;11959;49.418;8.728;2022-09-09T03:35:22;5.03;;;1.70;;
23561;SDS011;11959;49.418;8.728;2022-09-09T03:37:48;3.58;;;1.67;;
23561;SDS011;11959;49.418;8.728;2022-09-09T03:40:13;4.20;;;1.50;;
23561;SDS011;11959;49.418;8.728;2022-09-09T03:42:39;6.53;;;1.90;;
23561;SDS011;11959;49.418;8.728;2022-09-09T03:45:06;6.13;;;1.50;;
23561;SDS011;11959;49.418;8.728;2022-09-09T03:47:34;3.25;;;1.52;;
23561;SDS011;11959;49.418;8.728;2022-09-09T03:50:00;3.35;;;1.30;;
23561;SDS011;11959;49.418;8.728;2022-09-09T03:52:25;3.25;;;1.50;;
23561;SDS011;11959;49.418;8.728;2022-09-09T03:54:52;3.35;;;1.75;;
23561;SDS011;11959;49.418;8.728;2022-09-09T03:57:18;3.67;;;1.60;;
23561;SDS011;11959;49.418;8.728;2022-09-09T03:59:46;5.07;;;1.60;;
23561;SDS011;11959;49.418;8.728;2022-09-09T04:02:12;4.22;;;1.63;;
23561;SDS011;11959;49.418;8.728;2022-09-09T04:04:37;3.70;;;1.60;;
23561;SDS011;11959;49.418;8.728;2022-09-09T04:07:03;2.65;;;1.50;;
23561;SDS011;11959;49.418;8.728;2022-09-09T04:09:31;4.63;;;1.50;;
23561;SDS011;11959;49.418;8.728;2022-09-09T04:11:57;4.28;;;1.75;;
23561;SDS011;11959;49.418;8.728;2022-09-09T04:14:23;2.92;;;1.50;;
23561;SDS011;11959;49.418;8.728;2022-09-09T04:16:53;2.65;;;1.40;;
23561;SDS011;11959;49.418;8.728;2022-09-09T04:19:20;3.72;;;1.30;;
23561;SDS011;11959;49.418;8.728;2022-09-09T04:21:46;3.13;;;1.30;;
23561;SDS011;11959;49.418;8.728;2022-09-09T04:24:14;3.13;;;1.52;;
23561;SDS011;11959;49.418;8.728;2022-09-09T04:26:41;2.65;;;1.40;;
23561;SDS011;11959;49.418;8.728;2022-09-09T04:29:06;3.83;;;1.60;;
23561;SDS011;11959;49.418;8.728;2022-09-09T04:31:32;3.15;;;1.50;;
23561;SDS011;11959;49.418;8.728;2022-09-09T04:33:58;3.38;;;1.75;;
23561;SDS011;11959;49.418;8.728;2022-09-09T04:36:30;5.03;;;1.73;;
23561;SDS011;11959;49.418;8.728;2022-09-09T04:38:57;3.25;;;1.42;;
23561;SDS011;11959;49.418;8.728;2022-09-09T04:41:22;3.60;;;1.40;;
23561;SDS011;11959;49.418;8.728;2022-09-09T04:43:48;4.10;;;1.58;;
23561;SDS011;11959;49.418;8.728;2022-09-09T04:46:14;4.85;;;1.45;;
23561;SDS011;11959;49.418;8.728;2022-09-09T04:48:42;3.90;;;1.48;;
23561;SDS011;11959;49.418;8.728;2022-09-09T04:51:08;3.80;;;1.08;;
23561;SDS011;11959;49.418;8.728;2022-09-09T04:53:36;2.78;;;1.30;;
23561;SDS011;11959;49.418;8.728;2022-09-09T04:56:03;5.90;;;1.00;;
23561;SDS011;11959;49.418;8.728;2022-09-09T04:58:35;2.22;;;1.00;;
23561;SDS011;11959;49.418;8.728;2022-09-09T05:03:35;3.03;;;0.90;;
23561;SDS011;11959;49.418;8.728;2022-09-09T05:06:12;1.98;;;1.10;;
23561;SDS011;11959;49.418;8.728;2022-09-09T05:08:40;1.05;;;0.90;;
23561;SDS011;11959;49.418;8.728;2022-09-09T05:11:19;4.72;;;1.38;;
23561;SDS011;11959;49.418;8.728;2022-09-09T05:13:47;2.83;;;1.20;;
23561;SDS011;11959;49.418;8.728;2022-09-09T05:16:15;3.50;;;1.20;;
23561;SDS011;11959;49.418;8.728;2022-09-09T05:18:41;3.20;;;1.05;;
23561;SDS011;11959;49.418;8.728;2022-09-09T05:21:11;4.05;;;1.35;;
23561;SDS011;11959;49.418;8.728;2022-09-09T05:23:38;2.40;;;1.02;;
23561;SDS011;11959;49.418;8.728;2022-09-09T05:26:04;2.53;;;1.08;;
23561;SDS011;11959;49.418;8.728;2022-09-09T05:28:32;2.50;;;1.13;;
23561;SDS011;11959;49.418;8.728;2022-09-09T05:31:01;2.20;;;0.95;;
23561;SDS011;11959;49.418;8.728;2022-09-09T05:33:37;3.08;;;1.00;;
23561;SDS011;11959;49.418;8.728;2022-09-09T05:36:06;2.75;;;1.30;;
23561;SDS011;11959;49.418;8.728;2022-09-09T05:38:33;2.33;;;1.08;;
23561;SDS011;11959;49.418;8.728;2022-09-09T05:41:00;3.05;;;0.95;;
23561;SDS011;11959;49.418;8.728;2022-09-09T05:43:27;3.20;;;1.33;;
23561;SDS011;11959;49.418;8.728;2022-09-09T05:46:07;3.65;;;1.17;;
23561;SDS011;11959;49.418;8.728;2022-09-09T05:48:35;2.38;;;0.75;;
23561;SDS011;11959;49.418;8.728;2022-09-09T05:51:02;4.28;;;0.93;;
23561;SDS011;11959;49.418;8.728;2022-09-09T05:53:29;4.50;;;1.17;;
23561;SDS011;11959;49.418;8.728;2022-09-09T05:56:14;2.53;;;1.00;;
23561;SDS011;11959;49.418;8.728;2022-09-09T05:58:47;4.32;;;0.80;;
23561;SDS011;11959;49.418;8.728;2022-09-09T06:01:15;2.83;;;0.80;;
23561;SDS011;11959;49.418;8.728;2022-09-09T06:03:43;3.97;;;0.90;;
23561;SDS011;11959;49.418;8.728;2022-09-09T06:06:11;3.83;;;0.77;;
23561;SDS011;11959;49.418;8.728;2022-09-09T06:08:43;2.80;;;0.77;;
23561;SDS011;11959;49.418;8.728;2022-09-09T06:13:37;3.40;;;1.08;;
23561;SDS011;11959;49.418;8.728;2022-09-09T06:16:07;3.13;;;1.73;;
23561;SDS011;11959;49.418;8.728;2022-09-09T06:18:34;3.38;;;1.13;;
23561;SDS011;11959;49.418;8.728;2022-09-09T06:21:00;3.58;;;0.70;;
23561;SDS011;11959;49.418;8.728;2022-09-09T06:23:29;3.22;;;0.65;;
23561;SDS011;11959;49.418;8.728;2022-09-09T06:26:05;2.17;;;0.88;;
23561;SDS011;11959;49.418;8.728;2022-09-09T06:28:34;2.17;;;0.73;;
23561;SDS011;11959;49.418;8.728;2022-09-09T06:31:01;2.03;;;0.70;;
23561;SDS011;11959;49.418;8.728;2022-09-09T06:33:33;3.05;;;0.90;;
23561;SDS011;11959;49.418;8.728;2022-09-09T06:36:00;1.50;;;0.60;;
23561;SDS011;11959;49.418;8.728;2022-09-09T06:38:28;2.55;;;0.65;;
23561;SDS011;11959;49.418;8.728;2022-09-09T06:40:54;2.63;;;0.80;;
23561;SDS011;11959;49.418;8.728;2022-09-09T06:43:21;6.07;;;1.13;;
23561;SDS011;11959;49.418;8.728;2022-09-09T06:45:55;3.28;;;1.10;;
23561;SDS011;11959;49.418;8.728;2022-09-09T06:48:26;3.28;;;0.90;;
23561;SDS011;11959;49.418;8.728;2022-09-09T06:53:32;4.25;;;0.80;;
23561;SDS011;11959;49.418;8.728;2022-09-09T06:56:02;3.25;;;0.70;;
23561;SDS011;11959;49.418;8.728;2022-09-09T06:58:41;4.72;;;1.25;;
23561;SDS011;11959;49.418;8.728;2022-09-09T07:01:09;3.85;;;1.10;;
23561;SDS011;11959;49.418;8.728;2022-09-09T07:03:37;3.00;;;0.80;;
23561;SDS011;11959;49.418;8.728;2022-09-09T07:06:03;3.35;;;0.80;;
23561;SDS011;11959;49.418;8.728;2022-09-09T07:08:30;2.58;;;0.82;;
23561;SDS011;11959;49.418;8.728;2022-09-09T07:11:05;3.17;;;1.05;;
23561;SDS011;11959;49.418;8.728;2022-09-09T07:13:33;2.72;;;0.77;;
23561;SDS011;11959;49.418;8.728;2022-09-09T07:16:03;4.60;;;0.85;;
23561;SDS011;11959;49.418;8.728;2022-09-09T07:18:34;3.50;;;1.13;;
23561;SDS011;11959;49.418;8.728;2022-09-09T07:21:00;6.13;;;1.48;;
23561;SDS011;11959;49.418;8.728;2022-09-09T07:23:27;5.75;;;0.98;;
23561;SDS011;11959;49.418;8.728;2022-09-09T07:25:52;2.67;;;1.00;;
23561;SDS011;11959;49.418;8.728;2022-09-09T07:28:19;5.75;;;1.10;;
23561;SDS011;11959;49.418;8.728;2022-09-09T07:30:55;4.57;;;1.13;;
23561;SDS011;11959;49.418;8.728;2022-09-09T07:33:22;6.07;;;1.25;;
23561;SDS011;11959;49.418;8.728;2022-09-09T07:35:49;4.03;;;1.05;;
23561;SDS011;11959;49.418;8.728;2022-09-09T07:38:15;5.78;;;1.10;;
23561;SDS011;11959;49.418;8.728;2022-09-09T07:40:41;4.35;;;1.08;;
23561;SDS011;11959;49.418;8.728;2022-09-09T07:43:06;3.17;;;1.17;;
23561;SDS011;11959;49.418;8.728;2022-09-09T07:45:33;4.50;;;1.23;;
23561;SDS011;11959;49.418;8.728;2022-09-09T07:48:00;4.97;;;1.23;;
23561;SDS011;11959;49.418;8.728;2022-09-09T07:50:26;2.10;;;0.85;;
23561;SDS011;11959;49.418;8.728;2022-09-09T07:52:52;5.22;;;1.30;;
23561;SDS011;11959;49.418;8.728;2022-09-09T07:55:18;5.95;;;1.40;;
23561;SDS011;11959;49.418;8.728;2022-09-09T07:57:45;5.25;;;1.15;;
23561;SDS011;11959;49.418;8.728;2022-09-09T08:00:11;6.18;;;1.40;;
23561;SDS011;11959;49.418;8.728;2022-09-09T08:02:37;6.88;;;1.33;;
23561;SDS011;11959;49.418;8.728;2022-09-09T08:05:03;4.50;;;1.20;;
23561;SDS011;11959;49.418;8.728;2022-09-09T08:07:31;5.97;;;1.50;;
23561;SDS011;11959;49.418;8.728;2022-09-09T08:09:56;4.15;;;1.00;;
23561;SDS011;11959;49.418;8.728;2022-09-09T08:12:22;3.67;;;0.88;;
23561;SDS011;11959;49.418;8.728;2022-09-09T08:14:48;4.75;;;1.25;;
23561;SDS011;11959;49.418;8.728;2022-09-09T08:17:14;6.38;;;1.30;;
23561;SDS011;11959;49.418;8.728;2022-09-09T08:19:39;5.43;;;1.15;;
23561;SDS011;11959;49.418;8.728;2022-09-09T08:22:05;5.43;;;1.27;;
23561;SDS011;11959;49.418;8.728;2022-09-09T08:24:32;5.03;;;1.00;;
23561;SDS011;11959;49.418;8.728;2022-09-09T08:26:58;5.22;;;1.55;;
23561;SDS011;11959;49.418;8.728;2022-09-09T08:29:24;4.00;;;1.17;;
23561;SDS011;11959;49.418;8.728;2022-09-09T08:31:51;4.13;;;1.23;;
23561;SDS011;11959;49.418;8.728;2022-09-09T08:34:19;5.28;;;1.30;;
23561;SDS011;11959;49.418;8.728;2022-09-09T08:36:46;4.43;;;1.15;;
23561;SDS011;11959;49.418;8.728;2022-09-09T08:39:13;4.22;;;1.00;;
23561;SDS011;11959;49.418;8.728;2022-09-09T08:53:04;6.60;;;1.42;;
23561;SDS011;11959;49.418;8.728;2022-09-09T08:55:24;4.65;;;1.42;;
23561;SDS011;11959;49.418;8.728;2022-09-09T08:58:17;6.40;;;1.42;;
23561;SDS011;11959;49.418;8.728;2022-09-09T09:00:46;5.68;;;1.45;;
23561;SDS011;11959;49.418;8.728;2022-09-09T09:09:02;6.28;;;1.23;;
23561;SDS011;11959;49.418;8.728;2022-09-09T09:11:40;5.75;;;1.27;;
23561;SDS011;11959;49.418;8.728;2022-09-09T09:14:19;5.40;;;1.13;;
23561;SDS011;11959;49.418;8.728;2022-09-09T09:16:56;5.15;;;1.40;;
23561;SDS011;11959;49.418;8.728;2022-09-09T09:19:26;4.10;;;1.10;;
23561;SDS011;11959;49.418;8.728;2022-09-09T09:24:33;6.90;;;1.40;;
23561;SDS011;11959;49.418;8.728;2022-09-09T09:27:15;4.63;;;1.00;;
23561;SDS011;11959;49.418;8.728;2022-09-09T09:29:46;6.70;;;1.00;;
23561;SDS011;11959;49.418;8.728;2022-09-09T09:32:16;3.33;;;1.02;;
23561;SDS011;11959;49.418;8.728;2022-09-09T09:34:49;3.15;;;1.13;;
23561;SDS011;11959;49.418;8.728;2022-09-09T09:37:42;4.53;;;1.02;;
23561;SDS011;11959;49.418;8.728;2022-09-09T09:40:09;3.45;;;0.85;;
23561;SDS011;11959;49.418;8.728;2022-09-09T09:43:03;3.92;;;1.05;;
23561;SDS011;11959;49.418;8.728;2022-09-09T09:48:12;6.13;;;1.40;;
23561;SDS011;11959;49.418;8.728;2022-09-09T09:53:30;4.85;;;1.30;;
23561;SDS011;11959;49.418;8.728;2022-09-09T09:55:58;5.68;;;1.23;;
23561;SDS011;11959;49.418;8.728;2022-09-09T09:58:26;3.95;;;1.20;;
23561;SDS011;11959;49.418;8.728;2022-09-09T10:00:57;5.18;;;1.38;;
23561;SDS011;11959;49.418;8.728;2022-09-09T10:03:30;6.03;;;1.08;;
23561;SDS011;11959;49.418;8.728;2022-09-09T10:06:02;6.47;;;1.30;;
23561;SDS011;11959;49.418;8.728;2022-09-09T10:08:28;6.20;;;1.33;;
23561;SDS011;11959;49.418;8.728;2022-09-09T10:19:29;5.35;;;1.52;;
23561;SDS011;11959;49.418;8.728;2022-09-09T10:27:38;5.65;;;1.30;;
23561;SDS011;11959;49.418;8.728;2022-09-09T10:30:20;5.43;;;1.20;;
23561;SDS011;11959;49.418;8.728;2022-09-09T10:36:14;6.30;;;1.35;;
23561;SDS011;11959;49.418;8.728;2022-09-09T10:38:45;6.18;;;1.30;;
23561;SDS011;11959;49.418;8.728;2022-09-09T10:41:25;5.18;;;1.38;;
23561;SDS011;11959;49.418;8.728;2022-09-09T10:57:22;3.78;;;1.00;;
23561;SDS011;11959;49.418;8.728;2022-09-09T11:00:05;8.10;;;1.20;;
23561;SDS011;11959;49.418;8.728;2022-09-09T11:02:39;3.85;;;1.00;;
23561;SDS011;11959;49.418;8.728;2022-09-09T11:05:10;2.95;;;0.85;;
23561;SDS011;11959;49.418;8.728;2022-09-09T11:07:55;4.18;;;0.90;;
23561;SDS011;11959;49.418;8.728;2022-09-09T11:25:04;3.28;;;1.02;;
23561;SDS011;11959;49.418;8.728;2022-09-09T11:38:42;4.75;;;1.05;;
23561;SDS011;11959;49.418;8.728;2022-09-09T11:41:15;4.90;;;1.00;;
23561;SDS011;11959;49.418;8.728;2022-09-09T11:43:43;5.05;;;0.90;;
23561;SDS011;11959;49.418;8.728;2022-09-09T11:46:11;3.92;;;1.13;;
23561;SDS011;11959;49.418;8.728;2022-09-09T11:48:44;4.68;;;1.05;;
23561;SDS011;11959;49.418;8.728;2022-09-09T11:53:57;3.83;;;1.20;;
23561;SDS011;11959;49.418;8.728;2022-09-09T11:56:44;6.28;;;1.27;;
23561;SDS011;11959;49.418;8.728;2022-09-09T11:59:21;5.53;;;1.10;;
23561;SDS011;11959;49.418;8.728;2022-09-09T12:12:24;2.25;;;0.60;;
23561;SDS011;11959;49.418;8.728;2022-09-09T12:17:25;5.88;;;1.10;;
23561;SDS011;11959;49.418;8.728;2022-09-09T12:33:42;5.32;;;0.90;;
23561;SDS011;11959;49.418;8.728;2022-09-09T12:36:15;3.40;;;1.00;;
23561;SDS011;11959;49.418;8.728;2022-09-09T12:38:46;4.80;;;0.90;;
23561;SDS011;11959;49.418;8.728;2022-09-09T12:41:25;6.20;;;1.15;;
23561;SDS011;11959;49.418;8.728;2022-09-09T12:44:03;3.67;;;0.90;;
23561;SDS011;11959;49.418;8.728;2022-09-09T12:46:40;5.18;;;1.00;;
23561;SDS011;11959;49.418;8.728;2022-09-09T12:49:23;2.20;;;0.70;;
23561;SDS011;11959;49.418;8.728;2022-09-09T12:51:53;3.42;;;0.73;;
23561;SDS011;11959;49.418;8.728;2022-09-09T12:54:22;2.90;;;0.80;;
23561;SDS011;11959;49.418;8.728;2022-09-09T12:56:48;2.00;;;0.70;;
23561;SDS011;11959;49.418;8.728;2022-09-09T12:59:25;2.65;;;0.57;;
23561;SDS011;11959;49.418;8.728;2022-09-09T13:02:02;3.67;;;0.70;;
23561;SDS011;11959;49.418;8.728;2022-09-09T13:04:36;6.05;;;1.38;;
23561;SDS011;11959;49.418;8.728;2022-09-09T13:07:06;4.00;;;0.70;;
23561;SDS011;11959;49.418;8.728;2022-09-09T13:09:34;2.95;;;0.90;;
23561;SDS011;11959;49.418;8.728;2022-09-09T13:12:00;1.67;;;0.60;;
23561;SDS011;11959;49.418;8.728;2022-09-09T13:14:34;1.77;;;0.70;;
23561;SDS011;11959;49.418;8.728;2022-09-09T13:17:05;1.95;;;0.65;;
23561;SDS011;11959;49.418;8.728;2022-09-09T13:19:43;2.85;;;0.70;;
23561;SDS011;11959;49.418;8.728;2022-09-09T13:27:51;2.47;;;0.70;;
23561;SDS011;11959;49.418;8.728;2022-09-09T13:30:21;2.88;;;0.90;;
23561;SDS011;11959;49.418;8.728;2022-09-09T13:38:14;3.72;;;0.90;;
23561;SDS011;11959;49.418;8.728;2022-09-09T13:40:40;2.40;;;0.55;;
23561;SDS011;11959;49.418;8.728;2022-09-09T13:43:20;2.72;;;0.30;;
23561;SDS011;11959;49.418;8.728;2022-09-09T13:45:58;1.20;;;0.40;;
23561;SDS011;11959;49.418;8.728;2022-09-09T13:48:26;1.13;;;0.50;;
23561;SDS011;11959;49.418;8.728;2022-09-09T13:50:59;2.97;;;0.50;;
23561;SDS011;11959;49.418;8.728;2022-09-09T13:53:32;1.17;;;0.40;;
23561;SDS011;11959;49.418;8.728;2022-09-09T13:55:58;1.27;;;0.40;;
23561;SDS011;11959;49.418;8.728;2022-09-09T13:58:24;1.10;;;0.32;;
23561;SDS011;11959;49.418;8.728;2022-09-09T14:00:51;2.58;;;0.40;;
23561;SDS011;11959;49.418;8.728;2022-09-09T14:03:18;2.72;;;0.45;;
23561;SDS011;11959;49.418;8.728;2022-09-09T14:05:44;1.75;;;0.30;;
23561;SDS011;11959;49.418;8.728;2022-09-09T14:08:14;1.33;;;0.28;;
23561;SDS011;11959;49.418;8.728;2022-09-09T14:10:46;2.20;;;0.35;;
23561;SDS011;11959;49.418;8.728;2022-09-09T14:13:12;2.55;;;0.57;;
23561;SDS011;11959;49.418;8.728;2022-09-09T14:15:38;1.75;;;0.63;;
23561;SDS011;11959;49.418;8.728;2022-09-09T14:18:04;1.85;;;0.65;;
23561;SDS011;11959;49.418;8.728;2022-09-09T14:20:29;1.08;;;0.40;;
23561;SDS011;11959;49.418;8.728;2022-09-09T14:22:55;1.50;;;0.40;;
23561;SDS011;11959;49.418;8.728;2022-09-09T14:25:22;2.55;;;0.70;;
23561;SDS011;11959;49.418;8.728;2022-09-09T14:27:48;1.52;;;0.52;;
23561;SDS011;11959;49.418;8.728;2022-09-09T14:30:16;2.13;;;0.60;;
23561;SDS011;11959;49.418;8.728;2022-09-09T14:32:42;2.22;;;0.60;;
23561;SDS011;11959;49.418;8.728;2022-09-09T14:35:07;1.55;;;0.40;;
23561;SDS011;11959;49.418;8.728;2022-09-09T14:37:33;1.75;;;0.60;;
23561;SDS011;11959;49.418;8.728;2022-09-09T14:39:59;1.58;;;0.40;;
23561;SDS011;11959;49.418;8.728;2022-09-09T14:42:25;2.17;;;0.50;;
23561;SDS011;11959;49.418;8.728;2022-09-09T14:44:51;2.00;;;0.52;;
23561;SDS011;11959;49.418;8.728;2022-09-09T14:47:17;2.33;;;0.60;;
23561;SDS011;11959;49.418;8.728;2022-09-09T14:49:43;3.00;;;0.68;;
23561;SDS011;11959;49.418;8.728;2022-09-09T14:52:09;3.38;;;0.60;;
23561;SDS011;11959;49.418;8.728;2022-09-09T14:54:35;2.10;;;0.50;;
23561;SDS011;11959;49.418;8.728;2022-09-09T14:57:00;2.00;;;0.70;;
23561;SDS011;11959;49.418;8.728;2022-09-09T14:59:27;2.22;;;0.60;;
23561;SDS011;11959;49.418;8.728;2022-09-09T15:01:52;4.55;;;1.05;;
23561;SDS011;11959;49.418;8.728;2022-09-09T15:04:18;2.35;;;0.60;;
23561;SDS011;11959;49.418;8.728;2022-09-09T15:06:44;2.03;;;0.60;;
23561;SDS011;11959;49.418;8.728;2022-09-09T15:09:13;2.05;;;0.60;;
23561;SDS011;11959;49.418;8.728;2022-09-09T15:11:39;2.08;;;0.90;;
23561;SDS011;11959;49.418;8.728;2022-09-09T15:14:05;2.28;;;0.63;;
23561;SDS011;11959;49.418;8.728;2022-09-09T15:16:33;3.55;;;0.88;;
23561;SDS011;11959;49.418;8.728;2022-09-09T15:18:59;2.40;;;0.65;;
23561;SDS011;11959;49.418;8.728;2022-09-09T15:21:30;2.97;;;0.68;;
23561;SDS011;11959;49.418;8.728;2022-09-09T15:23:58;3.83;;;0.82;;
23561;SDS011;11959;49.418;8.728;2022-09-09T15:26:24;2.72;;;0.65;;
23561;SDS011;11959;49.418;8.728;2022-09-09T15:28:51;3.78;;;0.70;;
23561;SDS011;11959;49.418;8.728;2022-09-09T15:33:46;2.65;;;1.23;;
23561;SDS011;11959;49.418;8.728;2022-09-09T15:36:17;2.70;;;0.80;;
23561;SDS011;11959;49.418;8.728;2022-09-09T15:38:45;2.72;;;0.90;;
23561;SDS011;11959;49.418;8.728;2022-09-09T15:41:11;5.85;;;1.48;;
23561;SDS011;11959;49.418;8.728;2022-09-09T15:43:38;9.93;;;2.35;;
23561;SDS011;11959;49.418;8.728;2022-09-09T15:47:05;6.90;;;1.35;;
23561;SDS011;11959;49.418;8.728;2022-09-09T15:49:14;4.97;;;0.82;;
23561;SDS011;11959;49.418;8.728;2022-09-09T15:51:43;1.73;;;0.60;;
23561;SDS011;11959;49.418;8.728;2022-09-09T15:54:12;4.68;;;0.75;;
23561;SDS011;11959;49.418;8.728;2022-09-09T15:56:43;5.20;;;0.77;;
23561;SDS011;11959;49.418;8.728;2022-09-09T15:59:09;2.70;;;0.90;;
23561;SDS011;11959;49.418;8.728;2022-09-09T16:01:36;6.10;;;1.02;;
23561;SDS011;11959;49.418;8.728;2022-09-09T16:04:01;4.40;;;1.02;;
23561;SDS011;11959;49.418;8.728;2022-09-09T16:06:28;3.00;;;0.80;;
23561;SDS011;11959;49.418;8.728;2022-09-09T16:08:55;3.20;;;0.80;;
23561;SDS011;11959;49.418;8.728;2022-09-09T16:11:23;3.45;;;0.70;;
23561;SDS011;11959;49.418;8.728;2022-09-09T16:13:51;1.77;;;0.77;;
23561;SDS011;11959;49.418;8.728;2022-09-09T16:16:18;2.17;;;0.80;;
23561;SDS011;11959;49.418;8.728;2022-09-09T16:18:47;3.97;;;0.80;;
23561;SDS011;11959;49.418;8.728;2022-09-09T16:21:20;4.68;;;0.82;;
23561;SDS011;11959;49.418;8.728;2022-09-09T16:23:51;2.25;;;0.80;;
23561;SDS011;11959;49.418;8.728;2022-09-09T16:26:21;2.58;;;0.60;;
23561;SDS011;11959;49.418;8.728;2022-09-09T16:28:47;3.13;;;0.60;;
23561;SDS011;11959;49.418;8.728;2022-09-09T16:31:14;3.45;;;0.80;;
23561;SDS011;11959;49.418;8.728;2022-09-09T16:33:44;1.80;;;0.60;;
23561;SDS011;11959;49.418;8.728;2022-09-09T16:36:11;2.70;;;0.55;;
23561;SDS011;11959;49.418;8.728;2022-09-09T16:38:54;1.33;;;0.52;;
23561;SDS011;11959;49.418;8.728;2022-09-09T16:41:22;1.15;;;0.47;;
23561;SDS011;11959;49.418;8.728;2022-09-09T16:43:52;1.45;;;0.50;;
23561;SDS011;11959;49.418;8.728;2022-09-09T16:46:19;2.28;;;0.68;;
23561;SDS011;11959;49.418;8.728;2022-09-09T16:48:46;1.80;;;0.40;;
23561;SDS011;11959;49.418;8.728;2022-09-09T16:51:15;1.98;;;0.40;;
23561;SDS011;11959;49.418;8.728;2022-09-09T16:53:45;1.90;;;0.60;;
23561;SDS011;11959;49.418;8.728;2022-09-09T16:56:19;2.95;;;0.60;;
23561;SDS011;11959;49.418;8.728;2022-09-09T16:59:00;1.27;;;0.60;;
23561;SDS011;11959;49.418;8.728;2022-09-09T17:01:29;1.17;;;0.55;;
23561;SDS011;11959;49.418;8.728;2022-09-09T17:03:56;2.22;;;0.65;;
23561;SDS011;11959;49.418;8.728;2022-09-09T17:06:24;1.23;;;0.60;;
23561;SDS011;11959;49.418;8.728;2022-09-09T17:08:57;2.30;;;0.60;;
23561;SDS011;11959;49.418;8.728;2022-09-09T17:11:25;2.42;;;0.65;;
23561;SDS011;11959;49.418;8.728;2022-09-09T17:13:51;1.45;;;0.50;;
23561;SDS011;11959;49.418;8.728;2022-09-09T17:16:18;3.70;;;0.60;;
23561;SDS011;11959;49.418;8.728;2022-09-09T17:18:48;0.30;;;0.30;;
23561;SDS011;11959;49.418;8.728;2022-09-09T17:21:16;1.02;;;0.50;;
23561;SDS011;11959;49.418;8.728;2022-09-09T17:23:44;1.58;;;0.70;;
23561;SDS011;11959;49.418;8.728;2022-09-09T17:26:11;1.20;;;0.45;;
23561;SDS011;11959;49.418;8.728;2022-09-09T17:28:39;2.25;;;0.60;;
23561;SDS011;11959;49.418;8.728;2022-09-09T17:31:06;2.15;;;0.60;;
23561;SDS011;11959;49.418;8.728;2022-09-09T17:33:34;0.73;;;0.40;;
23561;SDS011;11959;49.418;8.728;2022-09-09T17:36:02;1.55;;;0.60;;
23561;SDS011;11959;49.418;8.728;2022-09-09T17:38:36;3.50;;;0.70;;
23561;SDS011;11959;49.418;8.728;2022-09-09T17:41:10;3.83;;;0.90;;
23561;SDS011;11959;49.418;8.728;2022-09-09T17:43:37;2.10;;;0.70;;
23561;SDS011;11959;49.418;8.728;2022-09-09T17:48:32;2.30;;;1.00;;
23561;SDS011;11959;49.418;8.728;2022-09-09T17:50:58;3.53;;;0.80;;
23561;SDS011;11959;49.418;8.728;2022-09-09T17:53:24;1.45;;;0.93;;
23561;SDS011;11959;49.418;8.728;2022-09-09T17:55:51;1.70;;;0.77;;